createdAt,value
2018-12-06T00:00:24.832Z,1003.76
2018-12-06T00:01:24.703Z,1003.74
2018-12-06T00:02:24.696Z,1003.79
2018-12-06T00:03:24.682Z,1003.78
2018-12-06T00:04:24.671Z,1003.76
2018-12-06T00:05:25.075Z,1003.75
2018-12-06T00:06:24.771Z,1003.72
2018-12-06T00:07:24.641Z,1003.65
2018-12-06T00:08:24.630Z,1003.68
2018-12-06T00:09:24.620Z,1003.67
2018-12-06T00:10:24.609Z,1003.68
2018-12-06T00:11:24.601Z,1003.65
2018-12-06T00:12:26.366Z,1003.67
2018-12-06T00:13:24.579Z,1003.66
2018-12-06T00:14:24.568Z,1003.71
2018-12-06T00:15:24.562Z,1003.68
2018-12-06T00:16:24.552Z,1003.67
2018-12-06T00:17:24.538Z,1003.61
2018-12-06T00:18:24.646Z,1003.67
2018-12-06T00:19:24.916Z,1003.65
2018-12-06T00:20:24.506Z,1003.64
2018-12-06T00:21:24.497Z,1003.56
2018-12-06T00:22:24.546Z,1003.59
2018-12-06T00:23:24.546Z,1003.60
2018-12-06T00:24:24.758Z,1003.59
2018-12-06T00:25:24.548Z,1003.61
2018-12-06T00:26:25.054Z,1003.62
2018-12-06T00:27:24.542Z,1003.60
2018-12-06T00:28:24.514Z,1003.58
2018-12-06T00:29:24.414Z,1003.54
2018-12-06T00:30:24.545Z,1003.55
2018-12-06T00:31:24.400Z,1003.56
2018-12-06T00:32:24.382Z,1003.61
2018-12-06T00:33:24.750Z,1003.53
2018-12-06T00:34:24.365Z,1003.53
2018-12-06T00:35:24.350Z,1003.56
2018-12-06T00:36:24.460Z,1003.53
2018-12-06T00:37:24.331Z,1003.56
2018-12-06T00:38:24.321Z,1003.50
2018-12-06T00:39:24.310Z,1003.55
2018-12-06T00:40:24.774Z,1003.48
2018-12-06T00:41:24.289Z,1003.47
2018-12-06T00:42:24.398Z,1003.49
2018-12-06T00:43:24.267Z,1003.48
2018-12-06T00:44:24.257Z,1003.47
2018-12-06T00:45:24.246Z,1003.47
2018-12-06T00:46:24.238Z,1003.49
2018-12-06T00:47:24.591Z,1003.48
2018-12-06T00:48:24.345Z,1003.48
2018-12-06T00:49:24.207Z,1003.53
2018-12-06T00:50:24.199Z,1003.44
2018-12-06T00:51:24.369Z,1003.42
2018-12-06T00:52:24.177Z,1003.40
2018-12-06T00:53:24.164Z,1003.35
2018-12-06T00:54:24.671Z,1003.36
2018-12-06T00:55:24.143Z,1003.42
2018-12-06T00:56:24.131Z,1003.34
2018-12-06T00:57:24.121Z,1003.37
2018-12-06T00:58:24.113Z,1003.37
2018-12-06T00:59:24.101Z,1003.33
2018-12-06T01:00:24.213Z,1003.35
2018-12-06T01:01:24.083Z,1003.36
2018-12-06T01:02:24.069Z,1003.33
2018-12-06T01:03:24.059Z,1003.35
2018-12-06T01:04:24.048Z,1003.32
2018-12-06T01:05:24.042Z,1003.35
2018-12-06T01:06:24.159Z,1003.34
2018-12-06T01:07:24.432Z,1003.32
2018-12-06T01:08:24.008Z,1003.27
2018-12-06T01:09:23.997Z,1003.36
2018-12-06T01:10:23.985Z,1003.35
2018-12-06T01:11:23.979Z,1003.35
2018-12-06T01:12:24.086Z,1003.39
2018-12-06T01:13:23.958Z,1003.38
2018-12-06T01:14:23.945Z,1003.38
2018-12-06T01:15:24.651Z,1003.39
2018-12-06T01:16:23.923Z,1003.34
2018-12-06T01:17:23.914Z,1003.36
2018-12-06T01:18:24.020Z,1003.35
2018-12-06T01:19:25.233Z,1003.38
2018-12-06T01:20:23.882Z,1003.39
2018-12-06T01:21:23.871Z,1003.39
2018-12-06T01:22:23.860Z,1003.45
2018-12-06T01:23:23.850Z,1003.42
2018-12-06T01:24:24.063Z,1003.45
2018-12-06T01:25:23.834Z,1003.41
2018-12-06T01:26:24.107Z,1003.49
2018-12-06T01:27:23.807Z,1003.43
2018-12-06T01:28:23.799Z,1003.47
2018-12-06T01:29:23.790Z,1003.48
2018-12-06T01:30:23.895Z,1003.46
2018-12-06T01:31:23.767Z,1003.42
2018-12-06T01:32:23.800Z,1003.41
2018-12-06T01:33:24.059Z,1003.41
2018-12-06T01:34:23.736Z,1003.41
2018-12-06T01:35:23.724Z,1003.39
2018-12-06T01:36:23.833Z,1003.41
2018-12-06T01:37:23.763Z,1003.35
2018-12-06T01:38:23.694Z,1003.35
2018-12-06T01:39:23.684Z,1003.36
2018-12-06T01:40:23.675Z,1003.36
2018-12-06T01:41:23.669Z,1003.35
2018-12-06T01:42:23.805Z,1003.35
2018-12-06T01:43:23.647Z,1003.37
2018-12-06T01:44:23.631Z,1003.36
2018-12-06T01:45:24.039Z,1003.35
2018-12-06T01:46:23.613Z,1003.42
2018-12-06T01:47:23.599Z,1003.35
2018-12-06T01:48:23.712Z,1003.38
2018-12-06T01:49:23.578Z,1003.37
2018-12-06T01:50:23.581Z,1003.35
2018-12-06T01:51:23.557Z,1003.35
2018-12-06T01:52:23.833Z,1003.38
2018-12-06T01:53:23.536Z,1003.35
2018-12-06T01:54:23.650Z,1003.33
2018-12-06T01:55:23.515Z,1003.30
2018-12-06T01:56:23.505Z,1003.26
2018-12-06T01:57:23.498Z,1003.25
2018-12-06T01:58:23.484Z,1003.22
2018-12-06T01:59:23.881Z,1003.17
2018-12-06T02:00:23.612Z,1003.19
2018-12-06T02:01:23.474Z,1003.20
2018-12-06T02:02:23.496Z,1003.15
2018-12-06T02:03:23.481Z,1003.19
2018-12-06T02:04:23.545Z,1003.13
2018-12-06T02:05:23.510Z,1003.18
2018-12-06T02:06:23.946Z,1003.14
2018-12-06T02:07:23.405Z,1003.12
2018-12-06T02:08:23.400Z,1003.11
2018-12-06T02:09:23.383Z,1003.13
2018-12-06T02:10:23.373Z,1003.03
2018-12-06T02:11:23.362Z,1003.04
2018-12-06T02:12:23.479Z,1003.07
2018-12-06T02:13:24.756Z,1003.07
2018-12-06T02:14:23.330Z,1003.01
2018-12-06T02:15:23.322Z,1003.02
2018-12-06T02:16:23.310Z,1002.95
2018-12-06T02:17:23.305Z,1002.96
2018-12-06T02:18:23.698Z,1002.96
2018-12-06T02:19:23.280Z,1002.90
2018-12-06T02:20:23.756Z,1002.94
2018-12-06T02:21:23.259Z,1002.90
2018-12-06T02:22:23.249Z,1002.91
2018-12-06T02:23:23.237Z,1002.88
2018-12-06T02:24:23.355Z,1002.90
2018-12-06T02:25:23.216Z,1002.89
2018-12-06T02:26:23.205Z,1002.86
2018-12-06T02:27:23.576Z,1002.91
2018-12-06T02:28:23.180Z,1002.91
2018-12-06T02:29:23.170Z,1002.87
2018-12-06T02:30:23.283Z,1002.90
2018-12-06T02:31:23.148Z,1002.89
2018-12-06T02:32:23.153Z,1002.89
2018-12-06T02:33:23.126Z,1002.91
2018-12-06T02:34:23.592Z,1002.89
2018-12-06T02:35:23.105Z,1002.86
2018-12-06T02:36:23.247Z,1002.84
2018-12-06T02:37:23.086Z,1002.89
2018-12-06T02:38:23.074Z,1002.85
2018-12-06T02:39:23.068Z,1002.88
2018-12-06T02:40:23.059Z,1002.90
2018-12-06T02:41:23.412Z,1002.92
2018-12-06T02:42:23.156Z,1002.92
2018-12-06T02:43:23.025Z,1002.89
2018-12-06T02:44:23.014Z,1002.94
2018-12-06T02:45:23.002Z,1002.95
2018-12-06T02:46:23.010Z,1002.98
2018-12-06T02:47:22.980Z,1002.92
2018-12-06T02:48:23.473Z,1002.90
2018-12-06T02:49:22.961Z,1002.87
2018-12-06T02:50:22.949Z,1002.85
2018-12-06T02:51:23.098Z,1002.80
2018-12-06T02:52:22.968Z,1002.75
2018-12-06T02:53:22.991Z,1002.71
2018-12-06T02:54:23.322Z,1002.76
2018-12-06T02:55:23.341Z,1002.71
2018-12-06T02:56:22.990Z,1002.73
2018-12-06T02:57:22.901Z,1002.74
2018-12-06T02:58:22.911Z,1002.74
2018-12-06T02:59:22.871Z,1002.76
2018-12-06T03:01:44.622Z,1002.79
2018-12-06T03:02:44.127Z,1002.78
2018-12-06T03:03:44.118Z,1002.79
2018-12-06T03:04:44.101Z,1002.82
2018-12-06T03:05:44.090Z,1002.83
2018-12-06T03:06:44.080Z,1002.80
2018-12-06T03:07:44.495Z,1002.76
2018-12-06T03:08:44.440Z,1002.79
2018-12-06T03:09:46.184Z,1002.76
2018-12-06T03:10:44.037Z,1002.74
2018-12-06T03:11:44.026Z,1002.73
2018-12-06T03:12:44.023Z,1002.75
2018-12-06T03:13:44.287Z,1002.77
2018-12-06T03:14:44.277Z,1002.70
2018-12-06T03:15:43.984Z,1002.68
2018-12-06T03:16:43.974Z,1002.72
2018-12-06T03:17:43.963Z,1002.65
2018-12-06T03:18:43.977Z,1002.63
2018-12-06T03:19:44.263Z,1002.63
2018-12-06T03:20:43.985Z,1002.67
2018-12-06T03:21:44.365Z,1002.65
2018-12-06T03:22:43.931Z,1002.58
2018-12-06T03:23:43.905Z,1002.64
2018-12-06T03:24:43.889Z,1002.65
2018-12-06T03:25:44.001Z,1002.64
2018-12-06T03:26:43.880Z,1002.66
2018-12-06T03:27:43.859Z,1002.64
2018-12-06T03:28:44.183Z,1002.62
2018-12-06T03:29:43.838Z,1002.61
2018-12-06T03:30:43.830Z,1002.61
2018-12-06T03:31:43.937Z,1002.62
2018-12-06T03:32:43.808Z,1002.57
2018-12-06T03:33:43.795Z,1002.55
2018-12-06T03:34:43.785Z,1002.53
2018-12-06T03:35:44.207Z,1002.49
2018-12-06T03:36:43.763Z,1002.50
2018-12-06T03:37:44.144Z,1002.49
2018-12-06T03:38:43.745Z,1002.43
2018-12-06T03:39:43.732Z,1002.45
2018-12-06T03:40:43.722Z,1002.35
2018-12-06T03:41:43.710Z,1002.34
2018-12-06T03:42:44.027Z,1002.33
2018-12-06T03:43:43.807Z,1002.30
2018-12-06T03:44:43.682Z,1002.26
2018-12-06T03:45:43.667Z,1002.28
2018-12-06T03:46:43.657Z,1002.25
2018-12-06T03:47:43.648Z,1002.24
2018-12-06T03:48:43.637Z,1002.24
2018-12-06T03:49:44.094Z,1002.24
2018-12-06T03:50:43.620Z,1002.23
2018-12-06T03:51:43.604Z,1002.23
2018-12-06T03:52:43.598Z,1002.26
2018-12-06T03:53:43.584Z,1002.30
2018-12-06T03:54:43.576Z,1002.35
2018-12-06T03:55:43.664Z,1002.33
2018-12-06T03:56:43.874Z,1002.37
2018-12-06T03:57:43.544Z,1002.39
2018-12-06T03:58:43.532Z,1002.39
2018-12-06T03:59:43.521Z,1002.37
2018-12-06T04:00:43.514Z,1002.37
2018-12-06T04:01:43.571Z,1002.37
2018-12-06T04:02:43.487Z,1002.46
2018-12-06T04:03:43.802Z,1002.46
2018-12-06T04:04:43.466Z,1002.45
2018-12-06T04:05:43.457Z,1002.46
2018-12-06T04:06:43.446Z,1002.49
2018-12-06T04:07:43.635Z,1002.47
2018-12-06T04:08:43.435Z,1002.47
2018-12-06T04:09:43.524Z,1002.49
2018-12-06T04:10:43.708Z,1002.52
2018-12-06T04:11:43.419Z,1002.55
2018-12-06T04:12:43.381Z,1002.56
2018-12-06T04:13:43.478Z,1002.59
2018-12-06T04:14:43.361Z,1002.58
2018-12-06T04:15:43.372Z,1002.55
2018-12-06T04:16:43.339Z,1002.57
2018-12-06T04:17:43.657Z,1002.60
2018-12-06T04:18:43.319Z,1002.65
2018-12-06T04:19:43.380Z,1002.60
2018-12-06T04:20:43.305Z,1002.56
2018-12-06T04:21:43.287Z,1002.56
2018-12-06T04:22:43.275Z,1002.56
2018-12-06T04:23:43.265Z,1002.56
2018-12-06T04:24:43.548Z,1002.55
2018-12-06T04:25:43.322Z,1002.55
2018-12-06T04:26:43.234Z,1002.60
2018-12-06T04:27:43.224Z,1002.63
2018-12-06T04:28:43.211Z,1002.58
2018-12-06T04:29:43.201Z,1002.61
2018-12-06T04:30:43.194Z,1002.62
2018-12-06T04:31:43.296Z,1002.59
2018-12-06T04:32:43.170Z,1002.60
2018-12-06T04:33:43.160Z,1002.59
2018-12-06T04:34:43.149Z,1002.59
2018-12-06T04:35:43.142Z,1002.63
2018-12-06T04:36:43.142Z,1002.58
2018-12-06T04:37:43.517Z,1002.57
2018-12-06T04:38:43.109Z,1002.57
2018-12-06T04:39:43.097Z,1002.62
2018-12-06T04:40:43.087Z,1002.64
2018-12-06T04:41:43.076Z,1002.67
2018-12-06T04:42:43.065Z,1002.69
2018-12-06T04:43:43.133Z,1002.69
2018-12-06T04:44:43.505Z,1002.67
2018-12-06T04:45:43.033Z,1002.66
2018-12-06T04:46:43.026Z,1002.70
2018-12-06T04:47:43.011Z,1002.68
2018-12-06T04:48:43.002Z,1002.68
2018-12-06T04:49:43.321Z,1002.71
2018-12-06T04:50:42.982Z,1002.65
2018-12-06T04:51:43.544Z,1002.67
2018-12-06T04:52:42.966Z,1002.65
2018-12-06T04:53:42.948Z,1002.65
2018-12-06T04:54:42.939Z,1002.61
2018-12-06T04:55:43.073Z,1002.69
2018-12-06T04:56:42.916Z,1002.69
2018-12-06T04:57:42.908Z,1002.71
2018-12-06T04:58:43.176Z,1002.71
2018-12-06T04:59:42.886Z,1002.68
2018-12-06T05:00:42.878Z,1002.66
2018-12-06T05:01:42.942Z,1002.62
2018-12-06T05:02:42.853Z,1002.62
2018-12-06T05:03:42.844Z,1002.50
2018-12-06T05:04:42.832Z,1002.49
2018-12-06T05:05:43.164Z,1002.43
2018-12-06T05:06:42.813Z,1002.43
2018-12-06T05:07:43.788Z,1002.36
2018-12-06T05:08:42.793Z,1002.38
2018-12-06T05:09:42.797Z,1002.35
2018-12-06T05:10:42.773Z,1002.38
2018-12-06T05:11:42.758Z,1002.31
2018-12-06T05:12:43.187Z,1002.35
2018-12-06T05:13:42.813Z,1002.37
2018-12-06T05:14:42.740Z,1002.42
2018-12-06T05:15:42.720Z,1002.44
2018-12-06T05:16:42.707Z,1002.54
2018-12-06T05:17:42.695Z,1002.56
2018-12-06T05:18:42.684Z,1002.52
2018-12-06T05:19:43.048Z,1002.53
2018-12-06T05:20:42.662Z,1002.51
2018-12-06T05:21:42.652Z,1002.45
2018-12-06T05:22:42.641Z,1002.41
2018-12-06T05:23:42.631Z,1002.42
2018-12-06T05:24:42.622Z,1002.42
2018-12-06T05:25:42.843Z,1002.40
2018-12-06T05:26:42.881Z,1002.45
2018-12-06T05:27:42.588Z,1002.43
2018-12-06T05:28:42.578Z,1002.40
2018-12-06T05:29:42.566Z,1002.42
2018-12-06T05:30:42.558Z,1002.41
2018-12-06T05:31:42.621Z,1002.35
2018-12-06T05:32:42.535Z,1002.38
2018-12-06T05:33:42.843Z,1002.44
2018-12-06T05:34:42.515Z,1002.47
2018-12-06T05:35:42.517Z,1002.51
2018-12-06T05:36:42.498Z,1002.50
2018-12-06T05:37:42.556Z,1002.50
2018-12-06T05:38:42.471Z,1002.52
2018-12-06T05:39:42.461Z,1002.55
2018-12-06T05:40:42.751Z,1002.54
2018-12-06T05:41:42.439Z,1002.57
2018-12-06T05:42:42.437Z,1002.62
2018-12-06T05:43:42.515Z,1002.62
2018-12-06T05:44:42.409Z,1002.59
2018-12-06T05:45:42.403Z,1002.64
2018-12-06T05:46:42.385Z,1002.64
2018-12-06T05:47:42.694Z,1002.65
2018-12-06T05:48:42.364Z,1002.66
2018-12-06T05:49:42.429Z,1002.59
2018-12-06T05:50:42.344Z,1002.55
2018-12-06T05:51:42.333Z,1002.57
2018-12-06T05:52:42.325Z,1002.58
2018-12-06T05:53:42.319Z,1002.60
2018-12-06T05:54:42.714Z,1002.61
2018-12-06T05:55:42.364Z,1002.65
2018-12-06T05:56:42.279Z,1002.60
2018-12-06T05:57:42.271Z,1002.68
2018-12-06T05:58:42.257Z,1002.66
2018-12-06T05:59:42.247Z,1002.61
2018-12-06T06:00:42.240Z,1002.66
2018-12-06T06:01:42.560Z,1002.68
2018-12-06T06:02:42.216Z,1002.76
2018-12-06T06:03:43.528Z,1002.78
2018-12-06T06:04:42.193Z,1002.76
2018-12-06T06:05:42.188Z,1002.73
2018-12-06T06:06:42.177Z,1002.83
2018-12-06T06:07:42.579Z,1002.81
2018-12-06T06:08:42.155Z,1002.80
2018-12-06T06:09:42.206Z,1002.86
2018-12-06T06:10:42.130Z,1002.83
2018-12-06T06:11:42.119Z,1002.88
2018-12-06T06:12:42.109Z,1002.89
2018-12-06T06:13:42.177Z,1002.97
2018-12-06T06:14:42.087Z,1002.99
2018-12-06T06:15:42.077Z,1002.99
2018-12-06T06:16:42.066Z,1002.97
2018-12-06T06:17:42.055Z,1003.01
2018-12-06T06:18:42.049Z,1003.03
2018-12-06T06:19:42.554Z,1003.06
2018-12-06T06:20:42.023Z,1003.05
2018-12-06T06:21:42.014Z,1002.98
2018-12-06T06:22:42.027Z,1002.97
2018-12-06T06:23:41.995Z,1003.02
2018-12-06T06:24:42.053Z,1003.03
2018-12-06T06:25:42.093Z,1003.01
2018-12-06T06:26:41.960Z,1003.00
2018-12-06T06:27:41.959Z,1003.00
2018-12-06T06:28:42.070Z,1003.05
2018-12-06T06:29:41.929Z,1003.06
2018-12-06T06:30:42.871Z,1003.07
2018-12-06T06:31:43.211Z,1003.04
2018-12-06T06:32:41.895Z,1003.08
2018-12-06T06:33:41.886Z,1003.16
2018-12-06T06:34:41.878Z,1003.16
2018-12-06T06:35:42.144Z,1003.14
2018-12-06T06:36:41.853Z,1003.14
2018-12-06T06:37:42.041Z,1003.14
2018-12-06T06:38:41.835Z,1003.18
2018-12-06T06:39:41.821Z,1003.18
2018-12-06T06:40:41.810Z,1003.11
2018-12-06T06:41:41.798Z,1003.16
2018-12-06T06:42:41.796Z,1003.12
2018-12-06T06:43:42.285Z,1003.21
2018-12-06T06:44:41.778Z,1003.19
2018-12-06T06:45:41.770Z,1003.21
2018-12-06T06:46:41.746Z,1003.15
2018-12-06T06:47:41.739Z,1003.14
2018-12-06T06:48:41.730Z,1003.07
2018-12-06T06:49:41.807Z,1003.00
2018-12-06T06:50:42.068Z,1003.03
2018-12-06T06:51:41.700Z,1002.97
2018-12-06T06:52:41.683Z,1002.93
2018-12-06T06:53:41.671Z,1002.92
2018-12-06T06:54:41.661Z,1002.87
2018-12-06T06:55:41.975Z,1002.84
2018-12-06T06:56:41.643Z,1002.91
2018-12-06T06:57:41.633Z,1002.89
2018-12-06T06:58:41.621Z,1002.88
2018-12-06T06:59:41.625Z,1002.84
2018-12-06T07:00:41.604Z,1002.83
2018-12-06T07:01:42.072Z,1002.86
2018-12-06T07:02:41.575Z,1002.88
2018-12-06T07:03:41.565Z,1002.91
2018-12-06T07:04:41.554Z,1002.88
2018-12-06T07:05:41.546Z,1002.92
2018-12-06T07:06:41.563Z,1002.84
2018-12-06T07:07:41.597Z,1002.98
2018-12-06T07:08:41.522Z,1002.98
2018-12-06T07:09:41.503Z,1002.98
2018-12-06T07:10:41.500Z,1003.04
2018-12-06T07:11:41.485Z,1003.09
2018-12-06T07:12:41.476Z,1003.12
2018-12-06T07:13:41.703Z,1003.12
2018-12-06T07:14:41.447Z,1003.12
2018-12-06T07:15:41.437Z,1003.17
2018-12-06T07:16:41.426Z,1003.25
2018-12-06T07:17:41.415Z,1003.28
2018-12-06T07:18:41.577Z,1003.32
2018-12-06T07:19:41.819Z,1003.34
2018-12-06T07:20:41.613Z,1003.37
2018-12-06T07:21:41.373Z,1003.36
2018-12-06T07:22:41.364Z,1003.36
2018-12-06T07:23:41.356Z,1003.37
2018-12-06T07:24:41.342Z,1003.42
2018-12-06T07:25:46.197Z,1003.43
2018-12-06T07:26:42.659Z,1003.48
2018-12-06T07:27:41.331Z,1003.51
2018-12-06T07:28:41.298Z,1003.55
2018-12-06T07:29:41.288Z,1003.59
2018-12-06T07:30:41.284Z,1003.62
2018-12-06T07:31:41.500Z,1003.59
2018-12-06T07:32:41.291Z,1003.61
2018-12-06T07:33:41.618Z,1003.59
2018-12-06T07:34:41.241Z,1003.61
2018-12-06T07:35:41.229Z,1003.66
2018-12-06T07:36:41.228Z,1003.68
2018-12-06T07:37:41.273Z,1003.69
2018-12-06T07:38:41.214Z,1003.71
2018-12-06T07:39:41.180Z,1003.72
2018-12-06T07:40:41.657Z,1003.69
2018-12-06T07:41:41.159Z,1003.73
2018-12-06T07:42:41.239Z,1003.73
2018-12-06T07:43:41.361Z,1003.74
2018-12-06T07:44:41.129Z,1003.79
2018-12-06T07:45:41.117Z,1003.86
2018-12-06T07:46:41.697Z,1003.82
2018-12-06T07:47:42.065Z,1003.78
2018-12-06T07:48:41.088Z,1003.80
2018-12-06T07:49:42.027Z,1003.79
2018-12-06T07:50:41.563Z,1003.75
2018-12-06T07:51:41.052Z,1003.71
2018-12-06T07:52:41.137Z,1003.67
2018-12-06T07:53:41.106Z,1003.64
2018-12-06T07:54:41.597Z,1003.68
2018-12-06T07:55:41.421Z,1003.71
2018-12-06T07:56:41.031Z,1003.67
2018-12-06T07:57:41.058Z,1003.71
2018-12-06T07:58:41.042Z,1003.68
2018-12-06T07:59:40.973Z,1003.72
2018-12-06T08:00:40.967Z,1003.74
2018-12-06T08:01:41.153Z,1003.72
2018-12-06T08:02:40.938Z,1003.75
2018-12-06T08:03:40.936Z,1003.68
2018-12-06T08:04:40.969Z,1003.73
2018-12-06T08:05:40.969Z,1003.78
2018-12-06T08:06:40.912Z,1003.76
2018-12-06T08:07:42.108Z,1003.78
2018-12-06T08:08:41.646Z,1003.78
2018-12-06T08:09:40.864Z,1003.81
2018-12-06T08:10:40.851Z,1003.81
2018-12-06T08:11:40.875Z,1003.78
2018-12-06T08:12:40.829Z,1003.81
2018-12-06T08:13:40.983Z,1003.82
2018-12-06T08:14:40.897Z,1003.79
2018-12-06T08:15:40.912Z,1003.86
2018-12-06T08:16:40.786Z,1003.88
2018-12-06T08:17:40.775Z,1003.90
2018-12-06T08:18:40.769Z,1003.93
2018-12-06T08:19:41.274Z,1003.93
2018-12-06T08:20:40.757Z,1003.86
2018-12-06T08:21:40.737Z,1003.91
2018-12-06T08:22:40.730Z,1003.94
2018-12-06T08:23:40.945Z,1003.98
2018-12-06T08:24:40.941Z,1003.97
2018-12-06T08:25:41.284Z,1003.99
2018-12-06T08:26:40.862Z,1003.99
2018-12-06T08:27:40.802Z,1004.03
2018-12-06T08:28:40.762Z,1003.99
2018-12-06T08:29:40.659Z,1003.94
2018-12-06T08:30:42.137Z,1003.98
2018-12-06T08:31:40.672Z,1004.02
2018-12-06T08:32:40.615Z,1004.14
2018-12-06T08:33:40.604Z,1004.15
2018-12-06T08:34:41.274Z,1004.14
2018-12-06T08:35:40.583Z,1004.16
2018-12-06T08:36:40.580Z,1004.17
2018-12-06T08:37:41.030Z,1004.14
2018-12-06T08:38:40.551Z,1004.15
2018-12-06T08:39:40.541Z,1004.13
2018-12-06T08:40:40.540Z,1004.16
2018-12-06T08:41:40.555Z,1004.21
2018-12-06T08:42:45.762Z,1004.23
2018-12-06T08:43:41.574Z,1004.25
2018-12-06T08:44:40.848Z,1004.21
2018-12-06T08:45:40.535Z,1004.20
2018-12-06T08:46:40.563Z,1004.21
2018-12-06T08:47:40.544Z,1004.22
2018-12-06T08:48:40.529Z,1004.26
2018-12-06T08:49:40.693Z,1004.24
2018-12-06T08:50:40.570Z,1004.19
2018-12-06T08:51:40.832Z,1004.24
2018-12-06T08:52:40.436Z,1004.21
2018-12-06T08:53:40.390Z,1004.22
2018-12-06T08:54:40.418Z,1004.22
2018-12-06T08:55:40.417Z,1004.17
2018-12-06T08:56:40.359Z,1004.18
2018-12-06T08:57:40.349Z,1004.13
2018-12-06T08:58:40.850Z,1004.18
2018-12-06T08:59:40.328Z,1004.17
2018-12-06T09:00:40.320Z,1004.14
2018-12-06T09:01:40.567Z,1004.15
2018-12-06T09:02:40.296Z,1004.14
2018-12-06T09:03:40.311Z,1004.17
2018-12-06T09:04:40.496Z,1004.13
2018-12-06T09:05:40.765Z,1004.13
2018-12-06T09:06:40.393Z,1004.07
2018-12-06T09:07:40.399Z,1004.06
2018-12-06T09:08:40.233Z,1004.05
2018-12-06T09:09:40.220Z,1004.03
2018-12-06T09:10:40.740Z,1004.03
2018-12-06T09:11:40.199Z,1003.97
2018-12-06T09:12:40.189Z,1003.91
2018-12-06T09:13:40.221Z,1003.92
2018-12-06T09:14:40.179Z,1003.91
2018-12-06T09:15:40.166Z,1003.89
2018-12-06T09:16:40.297Z,1003.91
2018-12-06T09:17:40.154Z,1003.85
2018-12-06T09:18:40.173Z,1003.90
2018-12-06T09:19:40.339Z,1003.84
2018-12-06T09:20:40.156Z,1003.87
2018-12-06T09:21:40.125Z,1003.84
2018-12-06T09:22:40.102Z,1003.82
2018-12-06T09:23:40.857Z,1003.86
2018-12-06T09:24:40.532Z,1003.84
2018-12-06T09:25:40.327Z,1003.84
2018-12-06T09:26:40.143Z,1003.90
2018-12-06T09:27:40.727Z,1003.91
2018-12-06T09:28:40.138Z,1003.86
2018-12-06T09:29:40.271Z,1003.86
2018-12-06T09:30:40.067Z,1003.86
2018-12-06T09:31:40.032Z,1003.88
2018-12-06T09:32:40.208Z,1003.84
2018-12-06T09:33:40.682Z,1003.80
2018-12-06T09:34:40.675Z,1003.89
2018-12-06T09:35:40.721Z,1003.86
2018-12-06T09:36:41.650Z,1003.91
2018-12-06T09:37:40.282Z,1003.93
2018-12-06T09:38:39.921Z,1003.92
2018-12-06T09:39:40.078Z,1003.93
2018-12-06T09:40:39.962Z,1003.98
2018-12-06T09:41:39.899Z,1003.99
2018-12-06T09:42:39.922Z,1003.97
2018-12-06T09:43:40.416Z,1004.00
2018-12-06T09:44:39.849Z,1004.00
2018-12-06T09:45:40.033Z,1003.97
2018-12-06T09:46:39.989Z,1003.95
2018-12-06T09:47:40.630Z,1003.94
2018-12-06T09:48:40.631Z,1003.95
2018-12-06T09:49:40.389Z,1003.92
2018-12-06T09:50:40.408Z,1004.03
2018-12-06T09:51:39.895Z,1003.95
2018-12-06T09:52:39.815Z,1004.02
2018-12-06T09:53:39.928Z,1003.95
2018-12-06T09:54:39.765Z,1004.01
2018-12-06T09:55:41.823Z,1003.96
2018-12-06T09:56:40.006Z,1003.99
2018-12-06T09:57:40.099Z,1003.98
2018-12-06T09:58:39.836Z,1003.90
2018-12-06T09:59:40.630Z,1003.90
2018-12-06T10:00:40.033Z,1003.91
2018-12-06T10:01:40.307Z,1003.88
2018-12-06T10:02:39.727Z,1003.88
2018-12-06T10:03:40.013Z,1003.93
2018-12-06T10:04:40.192Z,1003.91
2018-12-06T10:05:39.742Z,1003.84
2018-12-06T10:06:39.755Z,1003.78
2018-12-06T10:07:39.828Z,1003.83
2018-12-06T10:08:39.809Z,1003.82
2018-12-06T10:09:39.670Z,1003.68
2018-12-06T10:10:39.654Z,1003.68
2018-12-06T10:11:39.865Z,1003.69
2018-12-06T10:12:39.623Z,1003.74
2018-12-06T10:13:40.027Z,1003.77
2018-12-06T10:14:39.915Z,1003.79
2018-12-06T10:15:39.729Z,1003.72
2018-12-06T10:16:39.632Z,1003.67
2018-12-06T10:17:40.074Z,1003.71
2018-12-06T10:18:39.610Z,1003.67
2018-12-06T10:19:39.587Z,1003.66
2018-12-06T10:20:39.527Z,1003.67
2018-12-06T10:21:39.614Z,1003.70
2018-12-06T10:22:39.517Z,1003.65
2018-12-06T10:23:40.627Z,1003.69
2018-12-06T10:24:39.997Z,1003.67
2018-12-06T10:25:39.746Z,1003.58
2018-12-06T10:26:39.482Z,1003.58
2018-12-06T10:27:39.436Z,1003.57
2018-12-06T10:28:39.409Z,1003.55
2018-12-06T10:29:39.685Z,1003.55
2018-12-06T10:31:03.003Z,1003.58
2018-12-06T10:31:39.786Z,1003.60
2018-12-06T10:32:39.343Z,1003.62
2018-12-06T10:33:39.340Z,1003.56
2018-12-06T10:34:39.320Z,1003.59
2018-12-06T10:35:39.373Z,1003.54
2018-12-06T10:36:39.602Z,1003.54
2018-12-06T10:37:39.306Z,1003.48
2018-12-06T10:38:39.606Z,1003.51
2018-12-06T10:39:39.274Z,1003.52
2018-12-06T10:40:39.375Z,1003.50
2018-12-06T10:41:39.480Z,1003.55
2018-12-06T10:42:39.537Z,1003.47
2018-12-06T10:43:39.288Z,1003.54
2018-12-06T10:44:39.383Z,1003.58
2018-12-06T10:45:40.464Z,1003.50
2018-12-06T10:46:39.771Z,1003.52
2018-12-06T10:47:39.395Z,1003.51
2018-12-06T10:48:41.060Z,1003.55
2018-12-06T10:49:39.359Z,1003.50
2018-12-06T10:50:40.301Z,1003.50
2018-12-06T10:51:39.530Z,1003.51
2018-12-06T10:52:59.341Z,1003.44
2018-12-06T10:53:40.292Z,1003.43
2018-12-06T10:54:39.615Z,1003.37
2018-12-06T10:55:44.747Z,1003.40
2018-12-06T10:57:06.650Z,1003.41
2018-12-06T10:58:53.710Z,1003.42
2018-12-06T10:58:55.655Z,1003.45
2018-12-06T10:59:45.437Z,1003.46
2018-12-06T11:00:39.599Z,1003.46
2018-12-06T11:01:39.255Z,1003.45
2018-12-06T11:02:39.961Z,1003.47
2018-12-06T11:03:41.732Z,1003.53
2018-12-06T11:04:56.299Z,1003.48
2018-12-06T11:05:39.043Z,1003.51
2018-12-06T11:06:39.795Z,1003.49
2018-12-06T11:07:42.793Z,1003.55
2018-12-06T11:08:38.964Z,1003.55
2018-12-06T11:09:38.980Z,1003.49
2018-12-06T11:10:39.093Z,1003.49
2018-12-06T11:11:39.131Z,1003.52
2018-12-06T11:12:40.279Z,1003.52
2018-12-06T11:13:44.441Z,1003.49
2018-12-06T11:14:53.849Z,1003.48
2018-12-06T11:15:39.084Z,1003.45
2018-12-06T11:16:43.729Z,1003.49
2018-12-06T11:18:51.434Z,1003.46
2018-12-06T11:19:52.358Z,1003.56
2018-12-06T11:21:07.657Z,1003.48
2018-12-06T11:21:52.403Z,1003.54
2018-12-06T11:22:57.103Z,1003.55
2018-12-06T11:25:09.235Z,1003.58
2018-12-06T11:26:09.101Z,1003.53
2018-12-06T11:27:09.074Z,1003.56
2018-12-06T11:28:09.063Z,1003.59
2018-12-06T11:29:09.049Z,1003.57
2018-12-06T11:30:09.817Z,1003.64
2018-12-06T11:31:10.494Z,1003.70
2018-12-06T11:32:09.056Z,1003.71
2018-12-06T11:33:09.007Z,1003.72
2018-12-06T11:34:09.777Z,1003.77
2018-12-06T11:35:09.770Z,1003.70
2018-12-06T11:36:09.007Z,1003.68
2018-12-06T11:37:09.099Z,1003.65
2018-12-06T11:38:09.792Z,1003.58
2018-12-06T11:39:09.063Z,1003.54
2018-12-06T11:40:08.958Z,1003.57
2018-12-06T11:41:08.919Z,1003.51
2018-12-06T11:42:09.811Z,1003.50
2018-12-06T11:43:09.030Z,1003.44
2018-12-06T11:44:08.928Z,1003.44
2018-12-06T11:45:08.889Z,1003.44
2018-12-06T11:46:08.866Z,1003.47
2018-12-06T11:47:08.859Z,1003.49
2018-12-06T11:48:09.772Z,1003.51
2018-12-06T11:49:10.766Z,1003.48
2018-12-06T11:50:08.837Z,1003.46
2018-12-06T11:51:08.813Z,1003.46
2018-12-06T11:52:09.789Z,1003.43
2018-12-06T11:53:08.796Z,1003.49
2018-12-06T11:54:08.815Z,1003.41
2018-12-06T11:55:08.914Z,1003.49
2018-12-06T11:56:09.285Z,1003.49
2018-12-06T11:57:08.747Z,1003.54
2018-12-06T11:58:11.611Z,1003.54
2018-12-06T11:59:08.758Z,1003.54
2018-12-06T12:00:08.722Z,1003.58
2018-12-06T12:01:09.744Z,1003.56
2018-12-06T12:02:10.135Z,1003.54
2018-12-06T12:03:09.030Z,1003.53
2018-12-06T12:04:08.676Z,1003.49
2018-12-06T12:05:08.663Z,1003.49
2018-12-06T12:06:08.713Z,1003.44
2018-12-06T12:07:10.149Z,1003.43
2018-12-06T12:08:08.630Z,1003.47
2018-12-06T12:09:08.662Z,1003.45